WetterOnline ( https://www.wetteronline.de )

Wetter aktuell Grosswiesenhart

Aktuelles Wetter: Fürstenzell (480m)

6-stündlich | Neueste Meldungen
Ortszeit Temperatur Wetter
Fr, 05.03. 1:00 6.1° C leichter Regen
Do, 04.03. 19:00 7.5° C bedeckt
Do, 04.03. 13:00 7.0° C bedeckt
Do, 04.03. 7:00 2.3° C bedeckt
Do, 04.03. 1:00 3.3° C bewölkt
Mi, 03.03. 19:00 7.0° C bewölkt
Mi, 03.03. 13:00 5.5° C wolkig
Mi, 03.03. 7:00 -2.0° C fast wolkenlos
Ortszeit Temperatur Wetter
Fr, 05.03. 6:00 4.3° C bedeckt
Fr, 05.03. 5:40 4.5° C bedeckt
Fr, 05.03. 5:30 4.8° C Sprühregen
Fr, 05.03. 5:20 4.8° C Sprühregen
Fr, 05.03. 5:10 4.9° C Sprühregen
Fr, 05.03. 5:00 5.0° C Sprühregen
Fr, 05.03. 4:50 5.0° C Sprühregen
Fr, 05.03. 4:30 5.1° C leichter Regen
Fr, 05.03. 4:00 5.0° C Sprühregen
Fr, 05.03. 3:00 4.7° C leichter Regen
Fr, 05.03. 2:00 4.8° C Regen
Ortszeit Relative Feuchte Sichtweite
Fr, 05.03. 1:00 82% 8 km
Do, 04.03. 19:00 64% 26 km
Do, 04.03. 13:00 71% 19 km
Do, 04.03. 7:00 93% 5.0 km
Do, 04.03. 1:00 91% 7 km
Mi, 03.03. 19:00 66% 26 km
Mi, 03.03. 13:00 88% 9 km
Mi, 03.03. 7:00 97% 3.7 km
Ortszeit Relative Feuchte Sichtweite
Fr, 05.03. 6:00 91% 28 km
Fr, 05.03. 5:40 91% -
Fr, 05.03. 5:30 91% 18 km
Fr, 05.03. 5:20 91% -
Fr, 05.03. 5:10 92% -
Fr, 05.03. 5:00 92% 6 km
Fr, 05.03. 4:50 92% -
Fr, 05.03. 4:30 92% 14 km
Fr, 05.03. 4:00 93% 20 km
Fr, 05.03. 3:00 95% 11 km
Fr, 05.03. 2:00 95% 4.7 km
Ortszeit Niederschlagsmenge Niederschlagsart
Fr, 05.03. 1:00 0.3 l/m2 in 6 Std. Regen
Do, 04.03. 19:00 0.0 l/m2 in 12 Std. -
Do, 04.03. 13:00 0.0 l/m2 in 6 Std. -
Do, 04.03. 7:00 0.0 l/m2 in 12 Std. -
Do, 04.03. 1:00 0.0 l/m2 in 6 Std. -
Mi, 03.03. 19:00 0.0 l/m2 in 12 Std. -
Mi, 03.03. 13:00 0.0 l/m2 in 6 Std. -
Mi, 03.03. 7:00 0.0 l/m2 in 12 Std. -
Ortszeit Niederschlagsmenge Niederschlagsart
Fr, 05.03. 6:00 0.1 l/m2 in 1 Std. Regen
Fr, 05.03. 5:40 keine Meldung -
Fr, 05.03. 5:30 0.1 l/m2 in 1 Std. -
Fr, 05.03. 5:20 keine Meldung -
Fr, 05.03. 5:10 keine Meldung -
Fr, 05.03. 5:00 0.1 l/m2 in 1 Std. Regen
Fr, 05.03. 4:50 keine Meldung -
Fr, 05.03. 4:30 0.1 l/m2 in 1 Std. -
Fr, 05.03. 4:00 0.3 l/m2 in 1 Std. Regen
Fr, 05.03. 3:00 keine Meldung -
Fr, 05.03. 2:00 keine Meldung -
Ortszeit Stärke Spitze Richtung
km/h Bft. km/h Grad Sektor
Fr, 05.03. 1:00 24 4 35 250° W
Do, 04.03. 19:00 0 0 11 - -
Do, 04.03. 13:00 4 1 22 140° SO
Do, 04.03. 7:00 2 1 11 360° N
Do, 04.03. 1:00 6 1 9 50° NO
Mi, 03.03. 19:00 4 1 11 170° S
Mi, 03.03. 13:00 4 1 14 220° SW
Mi, 03.03. 7:00 7 2 11 40° NO
Ortszeit Stärke Spitze Richtung
km/h Bft. km/h Grad Sektor
Fr, 05.03. 6:00 24 4 44 280° W
Fr, 05.03. 5:40 20 4 - 270° W
Fr, 05.03. 5:30 28 4 44 270° W
Fr, 05.03. 5:20 28 4 - 270° W
Fr, 05.03. 5:10 24 4 - 260° W
Fr, 05.03. 5:00 22 4 40 250° W
Fr, 05.03. 4:50 22 4 - 250° W
Fr, 05.03. 4:30 22 4 40 250° W
Fr, 05.03. 4:00 25 4 40 240° SW
Fr, 05.03. 3:00 22 4 29 230° SW
Fr, 05.03. 2:00 22 4 40 230° SW
Ortszeit Untergrenze Bedeckung Gattung
total tief tief mittel hoch
Fr, 05.03. 1:00 810 m 7/8 7/8 - - -
Do, 04.03. 19:00 2400 m 8/8 8/8 - - -
Do, 04.03. 13:00 2700 m 8/8 8/8 - - -
Do, 04.03. 7:00 1800 m 8/8 8/8 - - -
Do, 04.03. 1:00 3900 m 8/8 4/8 - - -
Mi, 03.03. 19:00 5400 m 8/8 5/8 - - -
Mi, 03.03. 13:00 8100 m 7/8 0/8 - - -
Mi, 03.03. 7:00 <30 m 1/8 0/8 - - -
Ortszeit Bedeckungsgrad in Achtel und Wolkenuntergrenze
Fr, 05.03. 6:00 7(240m) 8(390m)
Fr, 05.03. 5:40 4(240m) 7(330m) 8(690m)
Fr, 05.03. 5:30 3(240m) 7(480m) 8(750m)
Fr, 05.03. 5:20 3(240m) 7(480m) 8(750m)
Fr, 05.03. 5:10 4(210m) 7(510m) 8(810m)
Fr, 05.03. 5:00 6(210m) 7(360m)
Fr, 05.03. 4:50 6(210m) 7(360m)
Fr, 05.03. 4:30 7(270m) 7(450m)
Fr, 05.03. 4:00 8(270m)
Fr, 05.03. 3:00 3(300m) 7(480m) 8(660m)
Fr, 05.03. 2:00 3(690m) 8(870m)
Ortszeit Luftdruck NN (hPa) Tendenz (hPa in 3 Std.)
Fr, 05.03. 1:00 1016 - 0,1
Do, 04.03. 19:00 1016 - 1,1
Do, 04.03. 13:00 1020 - 2,2
Do, 04.03. 7:00 1024 - 0,7
Do, 04.03. 1:00 1027 - 1,5
Mi, 03.03. 19:00 1029 - 1,0
Mi, 03.03. 13:00 1032 - 1,0
Mi, 03.03. 7:00 1034 + 0,1
Ortszeit Luftdruck NN (hPa) Tendenz (hPa in 3 Std.)
Fr, 05.03. 6:00 1016 + 0,9
Fr, 05.03. 5:40 1016 keine Meldung
Fr, 05.03. 5:30 1016 + 0,3
Fr, 05.03. 5:20 1016 keine Meldung
Fr, 05.03. 5:10 1016 keine Meldung
Fr, 05.03. 5:00 1016 0,0
Fr, 05.03. 4:50 1016 keine Meldung
Fr, 05.03. 4:30 1015 - 0,3
Fr, 05.03. 4:00 1015 - 0,7
Fr, 05.03. 3:00 1015 + 0,1
Fr, 05.03. 2:00 1016 0,0
Ortszeit Schneehöhe (cm)
Fr, 05.03. 1:00 0
Do, 04.03. 19:00 0
Do, 04.03. 13:00 0
Do, 04.03. 7:00 0
Do, 04.03. 1:00 0
Mi, 03.03. 19:00 0
Mi, 03.03. 13:00 0
Mi, 03.03. 7:00 0
Ortszeit Schneehöhe (cm)
Fr, 05.03. 6:00 0
Fr, 05.03. 5:40 0
Fr, 05.03. 5:30 0
Fr, 05.03. 5:20 0
Fr, 05.03. 5:10 0
Fr, 05.03. 5:00 0
Fr, 05.03. 4:50 0
Fr, 05.03. 4:30 0
Fr, 05.03. 4:00 0
Fr, 05.03. 3:00 -
Fr, 05.03. 2:00 -
Link zu dieser Seite / Seite empfehlen

Das Wetter in ...